Time;durP1;ratioP1;P1;durP2;ratioP2;P2;SDS_P1;SDS_P2;PMS_P1;PMS_P2;Temp;Humidity;BMP_temperature;BMP_pressure;BME280_temperature;BME280_humidity;BME280_pressure;Samples;Min_cycle;Max_cycle;Signal;HPM_P1;HPM_P2
2023/04/12 00:00:23;;;;;;;;;;;10.80;90.00;;;;;;5108072;28;19919;-67
2023/04/12 00:02:52;;;;;;;;;;;10.70;90.00;;;;;;5105513;28;19911;-67
2023/04/12 00:05:26;;;;;;;;;;;10.70;90.10;;;;;;5108151;28;20538;-67
2023/04/12 00:07:52;;;;;;;;;;;10.70;90.10;;;;;;5108335;28;19912;-67
2023/04/12 00:10:17;;;;;;;;;;;10.70;90.10;;;;;;5108403;28;20287;-67
2023/04/12 00:12:43;;;;;;;;;;;10.70;90.10;;;;;;5107748;28;19912;-67
2023/04/12 00:15:09;;;;;;;;;;;10.70;90.10;;;;;;5108070;28;19916;-67
2023/04/12 00:17:35;;;;;;;;;;;10.70;90.10;;;;;;5107962;28;19918;-67
2023/04/12 00:20:04;;;;;;;;;;;10.70;90.20;;;;;;5106748;28;19924;-68
2023/04/12 00:22:29;;;;;;;;;;;10.60;90.20;;;;;;5107671;28;20284;-67
2023/04/12 00:24:55;;;;;;;;;;;10.60;90.50;;;;;;5106937;28;19918;-67
2023/04/12 00:27:20;;;;;;;;;;;10.60;90.10;;;;;;5106360;28;20038;-67
2023/04/12 00:29:46;;;;;;;;;;;10.60;90.20;;;;;;5108907;28;20502;-67
2023/04/12 00:32:11;;;;;;;;;;;10.60;90.20;;;;;;5096496;28;19908;-67
2023/04/12 00:34:37;;;;;;;;;;;10.60;90.20;;;;;;5091331;28;19923;-67
2023/04/12 00:37:02;;;;;;;;;;;10.60;90.20;;;;;;5099478;28;19939;-67
2023/04/12 00:39:28;;;;;;;;;;;10.60;90.20;;;;;;5110577;28;19919;-67
2023/04/12 00:41:55;;;;;;;;;;;10.60;90.30;;;;;;5111509;28;19916;-67
2023/04/12 00:44:21;;;;;;;;;;;10.50;90.20;;;;;;5111880;27;19912;-67
2023/04/12 00:46:47;;;;;;;;;;;10.50;90.20;;;;;;5111744;28;19907;-67
2023/04/12 00:49:13;;;;;;;;;;;10.50;90.20;;;;;;5111447;28;19929;-67
2023/04/12 00:51:38;;;;;;;;;;;10.50;90.20;;;;;;5111367;27;19918;-67
2023/04/12 00:54:04;;;;;;;;;;;10.50;90.10;;;;;;5111095;28;19916;-67
2023/04/12 00:56:31;;;;;;;;;;;10.50;90.10;;;;;;5110772;28;19911;-67
2023/04/12 00:58:57;;;;;;;;;;;10.50;90.20;;;;;;5104523;28;19915;-67
2023/04/12 01:01:22;;;;;;;;;;;10.50;90.10;;;;;;5111042;28;19977;-67
2023/04/12 01:03:49;;;;;;;;;;;10.50;90.10;;;;;;5110929;28;19931;-67
2023/04/12 01:06:28;;;;;;;;;;;10.40;90.10;;;;;;5111167;28;19912;-67
2023/04/12 01:09:03;;;;;;;;;;;10.50;90.20;;;;;;5111036;28;19965;-67
2023/04/12 01:11:37;;;;;;;;;;;10.40;90.20;;;;;;5111209;27;20605;-67
2023/04/12 01:14:06;;;;;;;;;;;10.40;90.50;;;;;;5110686;28;19943;-67
2023/04/12 01:16:39;;;;;;;;;;;10.40;90.30;;;;;;5111276;28;19908;-67
2023/04/12 01:19:11;;;;;;;;;;;10.40;90.20;;;;;;5110267;28;19916;-67
2023/04/12 01:21:44;;;;;;;;;;;10.40;90.20;;;;;;5110937;27;19911;-67
2023/04/12 01:24:22;;;;;;;;;;;10.40;90.20;;;;;;5110833;28;20384;-67
2023/04/12 01:26:48;;;;;;;;;;;10.40;90.30;;;;;;5110946;28;19935;-67
2023/04/12 01:29:14;;;;;;;;;;;10.40;90.30;;;;;;5110693;28;19911;-67
2023/04/12 01:31:43;;;;;;;;;;;10.40;90.40;;;;;;5100320;28;20373;-67
2023/04/12 01:34:10;;;;;;;;;;;10.40;90.70;;;;;;5110219;28;19965;-67
2023/04/12 01:36:36;;;;;;;;;;;10.40;90.50;;;;;;5110340;28;19912;-67
2023/04/12 01:39:03;;;;;;;;;;;10.30;90.30;;;;;;5110580;28;19912;-67
2023/04/12 01:41:30;;;;;;;;;;;10.30;90.50;;;;;;5109821;28;19915;-67
2023/04/12 01:43:55;;;;;;;;;;;10.30;90.50;;;;;;5108996;28;19911;-67
2023/04/12 01:46:21;;;;;;;;;;;10.30;90.40;;;;;;5110683;28;19912;-67
2023/04/12 01:48:49;;;;;;;;;;;10.30;90.40;;;;;;5110256;28;19967;-67
2023/04/12 01:51:22;;;;;;;;;;;10.20;90.70;;;;;;5110517;28;19964;-67
2023/04/12 01:53:53;;;;;;;;;;;10.20;90.50;;;;;;5109889;28;19922;-67
2023/04/12 01:56:21;;;;;;;;;;;10.20;90.60;;;;;;5110391;28;19911;-67
2023/04/12 01:58:47;;;;;;;;;;;10.30;90.60;;;;;;5102456;28;19964;-67
2023/04/12 02:01:15;;;;;;;;;;;10.20;90.60;;;;;;5110422;28;19911;-67
2023/04/12 02:03:41;;;;;;;;;;;10.20;90.50;;;;;;5108444;28;19916;-67
2023/04/12 02:06:07;;;;;;;;;;;10.20;90.60;;;;;;5110345;28;20003;-67
2023/04/12 02:08:33;;;;;;;;;;;10.20;90.90;;;;;;5109852;27;20018;-67
2023/04/12 02:10:58;;;;;;;;;;;10.20;90.70;;;;;;5110134;28;19994;-67
2023/04/12 02:13:25;;;;;;;;;;;10.20;90.70;;;;;;5109631;28;19929;-67
2023/04/12 02:15:53;;;;;;;;;;;10.20;90.80;;;;;;5110177;28;19986;-67
2023/04/12 02:18:19;;;;;;;;;;;10.20;90.80;;;;;;5109737;28;19911;-67
2023/04/12 02:20:45;;;;;;;;;;;10.20;90.80;;;;;;5109933;28;19935;-67
2023/04/12 02:23:11;;;;;;;;;;;10.10;90.90;;;;;;5109675;28;20617;-67
2023/04/12 02:25:38;;;;;;;;;;;10.20;90.90;;;;;;5109451;28;19923;-67
2023/04/12 02:28:03;;;;;;;;;;;10.10;91.00;;;;;;5108096;28;19919;-67
2023/04/12 02:30:29;;;;;;;;;;;10.20;90.90;;;;;;5104185;28;19912;-67
2023/04/12 02:32:55;;;;;;;;;;;10.10;90.90;;;;;;5109308;28;19912;-68
2023/04/12 02:35:21;;;;;;;;;;;10.10;91.00;;;;;;5109454;28;20439;-67
2023/04/12 02:37:47;;;;;;;;;;;10.10;91.00;;;;;;5109326;28;19994;-67
2023/04/12 02:40:14;;;;;;;;;;;10.10;91.00;;;;;;5109354;28;20332;-67
2023/04/12 02:42:40;;;;;;;;;;;10.10;91.10;;;;;;5109159;28;20369;-67
2023/04/12 02:45:06;;;;;;;;;;;10.10;91.00;;;;;;5107950;28;19912;-67
2023/04/12 02:47:31;;;;;;;;;;;10.00;91.10;;;;;;5109129;28;20312;-67
2023/04/12 02:49:57;;;;;;;;;;;10.00;91.10;;;;;;5109168;28;19915;-67
2023/04/12 02:52:22;;;;;;;;;;;10.00;91.10;;;;;;5108613;28;19911;-67
2023/04/12 02:54:48;;;;;;;;;;;10.00;91.20;;;;;;5109266;28;19916;-67
2023/04/12 02:57:15;;;;;;;;;;;10.00;91.20;;;;;;5104227;28;19912;-67
2023/04/12 02:59:40;;;;;;;;;;;10.00;91.20;;;;;;5108528;28;19922;-67
2023/04/12 03:02:06;;;;;;;;;;;10.00;91.40;;;;;;5108773;28;19912;-67
2023/04/12 03:04:32;;;;;;;;;;;10.00;91.20;;;;;;5108792;28;19916;-67
2023/04/12 03:06:57;;;;;;;;;;;10.00;91.20;;;;;;5106895;28;20007;-67
2023/04/12 03:09:24;;;;;;;;;;;10.00;91.10;;;;;;5108720;28;19916;-67
2023/04/12 03:11:49;;;;;;;;;;;9.90;91.20;;;;;;5108241;28;19955;-67
2023/04/12 03:14:15;;;;;;;;;;;10.00;91.30;;;;;;5108714;28;19978;-67
2023/04/12 03:16:40;;;;;;;;;;;9.90;91.40;;;;;;5108419;28;19920;-67
2023/04/12 03:19:06;;;;;;;;;;;9.90;91.30;;;;;;5108092;28;19912;-68
2023/04/12 03:21:35;;;;;;;;;;;9.90;91.20;;;;;;5108117;28;19991;-67
2023/04/12 03:24:01;;;;;;;;;;;9.90;91.30;;;;;;5104947;28;19918;-67
2023/04/12 03:26:26;;;;;;;;;;;9.90;91.30;;;;;;5108449;28;19911;-67
2023/04/12 03:28:59;;;;;;;;;;;9.90;91.40;;;;;;5107564;28;19916;-67
2023/04/12 03:31:26;;;;;;;;;;;9.90;91.30;;;;;;5108071;28;19912;-67
2023/04/12 03:33:52;;;;;;;;;;;9.90;91.40;;;;;;5108055;28;20018;-67
2023/04/12 03:36:19;;;;;;;;;;;9.90;91.50;;;;;;5108661;28;19912;-67
2023/04/12 03:38:44;;;;;;;;;;;9.90;91.40;;;;;;5108347;28;20550;-67
2023/04/12 03:41:10;;;;;;;;;;;9.90;91.50;;;;;;5108365;28;19915;-68
2023/04/12 03:43:36;;;;;;;;;;;9.80;91.60;;;;;;5108022;28;19986;-67
2023/04/12 03:46:04;;;;;;;;;;;9.80;91.70;;;;;;5108471;28;19915;-67
2023/04/12 03:48:30;;;;;;;;;;;9.80;91.60;;;;;;5108409;28;19920;-67
2023/04/12 03:50:58;;;;;;;;;;;9.80;91.60;;;;;;5108721;28;20599;-67
2023/04/12 03:53:26;;;;;;;;;;;9.80;91.70;;;;;;5107910;28;20026;-67
2023/04/12 03:55:51;;;;;;;;;;;9.80;91.70;;;;;;5108416;28;19919;-67
2023/04/12 03:58:18;;;;;;;;;;;9.80;91.60;;;;;;5107551;28;19912;-67
2023/04/12 04:00:45;;;;;;;;;;;9.80;91.70;;;;;;5107991;28;20010;-67
2023/04/12 04:03:10;;;;;;;;;;;9.80;91.80;;;;;;5107809;28;19923;-67
2023/04/12 04:05:36;;;;;;;;;;;9.80;91.80;;;;;;5110438;28;19911;-67
2023/04/12 04:08:01;;;;;;;;;;;9.80;91.80;;;;;;5112206;28;19911;-67
2023/04/12 04:10:27;;;;;;;;;;;9.80;91.80;;;;;;5110951;28;20261;-67
2023/04/12 04:12:53;;;;;;;;;;;9.80;91.90;;;;;;5112047;28;19919;-67
2023/04/12 04:15:18;;;;;;;;;;;9.70;91.80;;;;;;5112231;28;19915;-67
2023/04/12 04:17:46;;;;;;;;;;;9.80;91.90;;;;;;5112089;28;19912;-67
2023/04/12 04:20:12;;;;;;;;;;;9.70;91.80;;;;;;5112205;27;19916;-67
2023/04/12 04:22:38;;;;;;;;;;;9.70;91.90;;;;;;5111855;28;19911;-67
2023/04/12 04:25:04;;;;;;;;;;;9.70;91.90;;;;;;5111961;28;19940;-67
2023/04/12 04:27:33;;;;;;;;;;;9.70;92.20;;;;;;5112003;28;19929;-67
2023/04/12 04:30:01;;;;;;;;;;;9.70;92.00;;;;;;5112084;28;19915;-67
2023/04/12 04:32:27;;;;;;;;;;;9.70;91.80;;;;;;5111428;28;19955;-67
2023/04/12 04:34:55;;;;;;;;;;;9.70;91.90;;;;;;5111788;28;20554;-67
2023/04/12 04:37:20;;;;;;;;;;;9.70;91.80;;;;;;5110297;28;19915;-67
2023/04/12 04:39:46;;;;;;;;;;;9.70;91.80;;;;;;5111915;28;19919;-67
2023/04/12 04:42:11;;;;;;;;;;;9.70;91.90;;;;;;5111096;28;20582;-68
2023/04/12 04:44:37;;;;;;;;;;;9.70;91.90;;;;;;5111977;28;19908;-67
2023/04/12 04:47:03;;;;;;;;;;;9.70;91.90;;;;;;5111585;28;19943;-67
2023/04/12 04:49:29;;;;;;;;;;;9.70;91.90;;;;;;5111422;28;19912;-68
2023/04/12 04:51:54;;;;;;;;;;;9.70;91.90;;;;;;5110918;28;20342;-67
2023/04/12 04:54:20;;;;;;;;;;;9.70;91.90;;;;;;5111446;28;20297;-67
2023/04/12 04:56:45;;;;;;;;;;;9.70;92.00;;;;;;5111265;28;20383;-67
2023/04/12 04:59:11;;;;;;;;;;;9.60;91.90;;;;;;5110927;28;20380;-67
2023/04/12 05:01:36;;;;;;;;;;;9.70;91.80;;;;;;5111108;28;19916;-67
2023/04/12 05:04:02;;;;;;;;;;;9.60;91.90;;;;;;5110596;28;20567;-67
2023/04/12 05:06:28;;;;;;;;;;;9.60;91.80;;;;;;5111072;28;19919;-67
2023/04/12 05:08:53;;;;;;;;;;;9.70;92.00;;;;;;5111159;28;19998;-67
2023/04/12 05:11:19;;;;;;;;;;;9.60;92.00;;;;;;5111301;28;20675;-67
2023/04/12 05:13:45;;;;;;;;;;;9.60;92.00;;;;;;5110739;28;19915;-67
2023/04/12 05:16:11;;;;;;;;;;;9.60;92.00;;;;;;5110914;28;19912;-67
2023/04/12 05:18:37;;;;;;;;;;;9.60;92.10;;;;;;5110909;28;19912;-67
2023/04/12 05:21:02;;;;;;;;;;;9.60;92.10;;;;;;5110693;28;19915;-67
2023/04/12 05:23:28;;;;;;;;;;;9.60;92.10;;;;;;5110900;28;20437;-67
2023/04/12 05:25:54;;;;;;;;;;;9.60;92.10;;;;;;5111070;28;19912;-67
2023/04/12 05:28:21;;;;;;;;;;;9.60;92.10;;;;;;5108558;28;20296;-67
2023/04/12 05:30:47;;;;;;;;;;;9.60;92.00;;;;;;5110663;28;19965;-67
2023/04/12 05:33:12;;;;;;;;;;;9.60;92.10;;;;;;5108887;28;19938;-67
2023/04/12 05:35:38;;;;;;;;;;;9.60;92.20;;;;;;5110821;28;20015;-67
2023/04/12 05:38:03;;;;;;;;;;;9.60;92.10;;;;;;5110556;28;19912;-67
2023/04/12 05:40:30;;;;;;;;;;;9.60;92.30;;;;;;5110615;28;20343;-67
2023/04/12 05:42:56;;;;;;;;;;;9.60;92.40;;;;;;5110272;28;19919;-67
2023/04/12 05:45:22;;;;;;;;;;;9.60;92.30;;;;;;5110396;28;19911;-67
2023/04/12 05:47:47;;;;;;;;;;;9.60;92.40;;;;;;5110404;28;19911;-68
2023/04/12 05:50:13;;;;;;;;;;;9.60;92.40;;;;;;5110308;27;19912;-67
2023/04/12 05:52:38;;;;;;;;;;;9.60;92.40;;;;;;5109998;28;19919;-67
2023/04/12 05:55:04;;;;;;;;;;;9.60;92.30;;;;;;5110368;28;20356;-67
2023/04/12 05:57:30;;;;;;;;;;;9.60;92.40;;;;;;5102874;28;19912;-67
2023/04/12 05:59:55;;;;;;;;;;;9.60;92.50;;;;;;5110017;28;19915;-67
2023/04/12 06:02:21;;;;;;;;;;;9.60;92.40;;;;;;5109848;28;19912;-67
2023/04/12 06:04:47;;;;;;;;;;;9.50;92.20;;;;;;5110272;28;19912;-67
2023/04/12 06:07:15;;;;;;;;;;;9.60;92.50;;;;;;5110108;28;19934;-67
2023/04/12 06:09:41;;;;;;;;;;;9.60;92.50;;;;;;5110004;28;19916;-67
2023/04/12 06:12:07;;;;;;;;;;;9.60;92.50;;;;;;5109539;28;19965;-67
2023/04/12 06:14:32;;;;;;;;;;;9.60;92.60;;;;;;5110077;28;19927;-67
2023/04/12 06:16:58;;;;;;;;;;;9.60;92.50;;;;;;5109879;28;20016;-67
2023/04/12 06:19:23;;;;;;;;;;;9.50;92.40;;;;;;5109410;28;19920;-67
2023/04/12 06:21:50;;;;;;;;;;;9.60;92.50;;;;;;5109348;28;19954;-67
2023/04/12 06:24:15;;;;;;;;;;;9.60;92.40;;;;;;5109265;28;19920;-67
2023/04/12 06:26:45;;;;;;;;;;;9.50;92.50;;;;;;5109396;28;19912;-67
2023/04/12 06:29:11;;;;;;;;;;;9.60;92.40;;;;;;5108628;28;19915;-67
2023/04/12 06:31:36;;;;;;;;;;;9.60;92.30;;;;;;5108761;28;19933;-67
2023/04/12 06:40:08;;;;;;;;;;;9.60;92.40;;;;;;5103173;27;19922;-67
2023/04/12 06:42:34;;;;;;;;;;;9.50;92.40;;;;;;5106869;27;19908;-67
2023/04/12 06:44:59;;;;;;;;;;;9.50;92.30;;;;;;5112615;27;19958;-67
2023/04/12 06:47:25;;;;;;;;;;;9.60;92.40;;;;;;5108531;28;19916;-67
2023/04/12 06:49:54;;;;;;;;;;;9.60;92.40;;;;;;5108807;28;20010;-67
2023/04/12 06:52:22;;;;;;;;;;;9.60;92.30;;;;;;5108511;28;19927;-67
2023/04/12 06:54:48;;;;;;;;;;;9.60;92.40;;;;;;5108710;28;19916;-67
2023/04/12 06:57:13;;;;;;;;;;;9.60;92.40;;;;;;5108724;28;19912;-67
2023/04/12 06:59:40;;;;;;;;;;;9.60;92.40;;;;;;5108393;28;19918;-67
2023/04/12 07:02:06;;;;;;;;;;;9.60;92.50;;;;;;5108651;28;19954;-67
2023/04/12 07:04:32;;;;;;;;;;;9.60;92.60;;;;;;5108908;28;20526;-67
2023/04/12 07:06:57;;;;;;;;;;;9.60;92.50;;;;;;5108986;28;19912;-67
2023/04/12 07:09:23;;;;;;;;;;;9.70;92.60;;;;;;5108564;28;19915;-67
2023/04/12 07:11:48;;;;;;;;;;;9.70;92.50;;;;;;5108590;28;19918;-67
2023/04/12 07:14:14;;;;;;;;;;;9.70;92.60;;;;;;5108581;28;19912;-67
2023/04/12 07:16:41;;;;;;;;;;;9.70;92.60;;;;;;5108521;28;19920;-67
2023/04/12 07:19:07;;;;;;;;;;;9.70;92.60;;;;;;5108437;28;19919;-67
2023/04/12 07:21:32;;;;;;;;;;;9.70;92.80;;;;;;5108836;28;20364;-67
2023/04/12 07:23:58;;;;;;;;;;;9.70;92.70;;;;;;5108364;28;20006;-67
2023/04/12 07:26:23;;;;;;;;;;;9.70;92.70;;;;;;5108641;28;20364;-67
2023/04/12 07:28:49;;;;;;;;;;;9.70;92.70;;;;;;5108321;28;19999;-67
2023/04/12 07:31:14;;;;;;;;;;;9.70;92.70;;;;;;5101636;28;19966;-67
2023/04/12 07:33:40;;;;;;;;;;;9.70;92.70;;;;;;5087414;28;19981;-67
2023/04/12 07:36:05;;;;;;;;;;;9.70;92.70;;;;;;5088170;28;19955;-67
2023/04/12 07:38:31;;;;;;;;;;;9.70;92.70;;;;;;5107484;28;19919;-67
2023/04/12 07:40:56;;;;;;;;;;;9.80;92.80;;;;;;5107202;28;19998;-67
2023/04/12 07:43:22;;;;;;;;;;;9.80;92.90;;;;;;5107672;28;19919;-67
2023/04/12 07:45:48;;;;;;;;;;;9.80;92.70;;;;;;5107852;28;19919;-67
2023/04/12 07:48:13;;;;;;;;;;;9.80;92.80;;;;;;5107974;28;20416;-67
2023/04/12 07:50:40;;;;;;;;;;;9.80;92.80;;;;;;5107745;28;20288;-68
2023/04/12 07:53:18;;;;;;;;;;;9.90;92.70;;;;;;5107105;28;19915;-68
2023/04/12 07:55:44;;;;;;;;;;;9.90;92.70;;;;;;5105375;28;19959;-68
2023/04/12 07:58:10;;;;;;;;;;;9.90;92.70;;;;;;5107006;28;20364;-68
2023/04/12 08:00:35;;;;;;;;;;;9.90;92.70;;;;;;5107442;28;20288;-68
2023/04/12 08:03:01;;;;;;;;;;;9.90;92.70;;;;;;5107462;28;20399;-68
2023/04/12 08:05:26;;;;;;;;;;;10.00;92.70;;;;;;5107871;28;19911;-68
2023/04/12 08:07:52;;;;;;;;;;;10.00;92.80;;;;;;5107582;28;19908;-68
2023/04/12 08:10:17;;;;;;;;;;;10.00;92.80;;;;;;5100689;28;19915;-68
2023/04/12 08:12:43;;;;;;;;;;;10.00;92.70;;;;;;5107354;28;19946;-68
2023/04/12 08:15:08;;;;;;;;;;;10.00;92.70;;;;;;5107654;28;19915;-68
2023/04/12 08:17:34;;;;;;;;;;;10.00;92.80;;;;;;5107869;28;19908;-68
2023/04/12 08:20:00;;;;;;;;;;;10.00;92.70;;;;;;5108081;28;19920;-68
2023/04/12 08:22:25;;;;;;;;;;;10.00;92.80;;;;;;5107568;28;19916;-68
2023/04/12 08:24:51;;;;;;;;;;;10.00;92.80;;;;;;5107742;28;19954;-68
2023/04/12 08:27:17;;;;;;;;;;;10.00;92.80;;;;;;5107658;28;19923;-68
2023/04/12 08:29:43;;;;;;;;;;;10.00;92.90;;;;;;5100789;28;19958;-68
2023/04/12 08:32:11;;;;;;;;;;;10.00;92.90;;;;;;5106473;28;19912;-68
2023/04/12 08:34:37;;;;;;;;;;;10.00;92.80;;;;;;5105168;28;19912;-68
2023/04/12 08:37:02;;;;;;;;;;;10.00;92.90;;;;;;5107441;28;20528;-68
2023/04/12 08:39:30;;;;;;;;;;;10.00;93.00;;;;;;5107972;28;19965;-68
2023/04/12 08:41:55;;;;;;;;;;;10.10;92.90;;;;;;5107407;28;20440;-68
2023/04/12 08:44:32;;;;;;;;;;;10.10;92.90;;;;;;5107637;28;19947;-68
2023/04/12 08:46:58;;;;;;;;;;;10.10;92.90;;;;;;5106034;28;19915;-68
2023/04/12 08:49:23;;;;;;;;;;;10.10;92.80;;;;;;5107158;28;19912;-68
2023/04/12 08:51:50;;;;;;;;;;;10.20;93.00;;;;;;5108767;28;20004;-68
2023/04/12 08:54:15;;;;;;;;;;;10.20;93.00;;;;;;5110735;27;19916;-68
2023/04/12 08:56:42;;;;;;;;;;;10.20;93.10;;;;;;5109494;28;20444;-68
2023/04/12 08:59:09;;;;;;;;;;;10.20;92.90;;;;;;5108987;28;20282;-68
2023/04/12 09:01:35;;;;;;;;;;;10.20;92.90;;;;;;5110836;28;20679;-68
2023/04/12 09:04:05;;;;;;;;;;;10.30;92.90;;;;;;5105271;28;19912;-68
2023/04/12 09:06:31;;;;;;;;;;;10.30;93.00;;;;;;5100481;28;19954;-68
2023/04/12 09:08:57;;;;;;;;;;;10.30;93.10;;;;;;5103961;27;20029;-68
2023/04/12 09:11:23;;;;;;;;;;;10.30;93.00;;;;;;5099463;28;20691;-68
2023/04/12 09:13:49;;;;;;;;;;;10.30;93.00;;;;;;5108778;27;19955;-68
2023/04/12 09:16:14;;;;;;;;;;;10.30;93.00;;;;;;5110334;28;19943;-68
2023/04/12 09:18:50;;;;;;;;;;;10.30;93.00;;;;;;5106681;28;19916;-68
2023/04/12 09:21:15;;;;;;;;;;;10.40;93.40;;;;;;5110705;28;19922;-68
2023/04/12 09:23:41;;;;;;;;;;;10.40;93.00;;;;;;5110380;28;20292;-68
2023/04/12 09:26:07;;;;;;;;;;;10.40;93.10;;;;;;5111136;28;20280;-68
2023/04/12 09:28:32;;;;;;;;;;;10.50;93.10;;;;;;5110632;28;20249;-68
2023/04/12 09:30:58;;;;;;;;;;;10.50;93.20;;;;;;5110638;28;19926;-68
2023/04/12 09:33:34;;;;;;;;;;;10.50;93.10;;;;;;5107338;28;19911;-68
2023/04/12 09:36:01;;;;;;;;;;;10.50;93.00;;;;;;5111045;28;19956;-68
2023/04/12 09:38:27;;;;;;;;;;;10.50;93.00;;;;;;5110554;28;19998;-68
2023/04/12 09:40:53;;;;;;;;;;;10.50;93.00;;;;;;5110403;28;20039;-68
2023/04/12 09:43:19;;;;;;;;;;;10.60;93.10;;;;;;5110272;28;20467;-68
2023/04/12 09:45:44;;;;;;;;;;;10.60;93.10;;;;;;5110510;28;20697;-68
2023/04/12 09:48:18;;;;;;;;;;;10.70;92.90;;;;;;5110383;28;20754;-68
2023/04/12 09:50:44;;;;;;;;;;;10.70;92.90;;;;;;5110235;28;19916;-68
2023/04/12 09:53:14;;;;;;;;;;;10.80;92.70;;;;;;5110175;28;19982;-68
2023/04/12 09:55:40;;;;;;;;;;;10.80;92.60;;;;;;5110081;28;19916;-68
2023/04/12 09:58:05;;;;;;;;;;;10.80;92.90;;;;;;5109401;28;19957;-69
2023/04/12 10:00:33;;;;;;;;;;;10.80;92.90;;;;;;5109297;28;20304;-68
2023/04/12 10:02:58;;;;;;;;;;;10.80;92.80;;;;;;5107391;28;19918;-69
2023/04/12 10:05:24;;;;;;;;;;;10.80;92.90;;;;;;5109914;28;19912;-68
2023/04/12 10:07:50;;;;;;;;;;;10.90;92.90;;;;;;5109776;28;19970;-69
2023/04/12 10:10:16;;;;;;;;;;;10.90;92.90;;;;;;5110036;28;19911;-68
2023/04/12 10:12:44;;;;;;;;;;;10.90;92.90;;;;;;5109748;28;19908;-68
2023/04/12 10:15:15;;;;;;;;;;;11.00;92.80;;;;;;5109967;28;19923;-68
2023/04/12 10:17:45;;;;;;;;;;;11.00;92.80;;;;;;5109881;28;19996;-68
2023/04/12 10:20:15;;;;;;;;;;;11.10;93.00;;;;;;5109768;28;19951;-68
2023/04/12 10:22:42;;;;;;;;;;;11.10;92.70;;;;;;5108140;28;20295;-69
2023/04/12 10:25:12;;;;;;;;;;;11.20;92.70;;;;;;5108195;28;20039;-69
2023/04/12 10:27:38;;;;;;;;;;;11.30;92.70;;;;;;5109538;28;19908;-69
2023/04/12 10:30:23;;;;;;;;;;;11.30;92.70;;;;;;5109495;28;19934;-69
2023/04/12 10:33:09;;;;;;;;;;;11.40;92.50;;;;;;5107229;28;20314;-68
2023/04/12 10:35:47;;;;;;;;;;;11.40;92.60;;;;;;5109065;27;19919;-69
2023/04/12 10:38:13;;;;;;;;;;;11.40;92.60;;;;;;5124004;27;19919;-69
2023/04/12 10:40:58;;;;;;;;;;;11.50;92.80;;;;;;5122591;27;19954;-69
2023/04/12 10:43:27;;;;;;;;;;;11.50;92.60;;;;;;5103192;28;19915;-69
2023/04/12 10:45:53;;;;;;;;;;;11.60;92.80;;;;;;5107809;28;19976;-69
2023/04/12 10:48:30;;;;;;;;;;;11.60;92.40;;;;;;5109002;28;20282;-69
2023/04/12 10:51:24;;;;;;;;;;;11.60;92.60;;;;;;5107969;28;19986;-68
2023/04/12 10:53:53;;;;;;;;;;;11.70;92.60;;;;;;5108585;28;19915;-69
2023/04/12 10:56:30;;;;;;;;;;;11.70;92.40;;;;;;5109057;28;19935;-69
2023/04/12 10:58:59;;;;;;;;;;;11.80;92.40;;;;;;5100882;28;20369;-68
2023/04/12 11:01:25;;;;;;;;;;;11.90;92.20;;;;;;5108982;28;19916;-68
2023/04/12 11:04:11;;;;;;;;;;;11.90;92.00;;;;;;5108616;28;19918;-69
2023/04/12 11:06:52;;;;;;;;;;;11.90;92.30;;;;;;5114335;27;19942;-68
2023/04/12 11:09:17;;;;;;;;;;;11.90;92.60;;;;;;5120767;27;19965;-69
2023/04/12 11:11:43;;;;;;;;;;;11.90;92.50;;;;;;5108973;28;19919;-69
2023/04/12 11:14:09;;;;;;;;;;;11.80;92.40;;;;;;5108549;28;20543;-69
2023/04/12 11:16:55;;;;;;;;;;;11.80;92.60;;;;;;5109059;28;19912;-69
2023/04/12 11:19:21;;;;;;;;;;;11.80;92.70;;;;;;5108561;28;20381;-69
2023/04/12 11:21:47;;;;;;;;;;;11.70;92.80;;;;;;5108526;28;20400;-69
2023/04/12 11:24:13;;;;;;;;;;;11.70;92.80;;;;;;5108417;28;19930;-69
2023/04/12 11:26:38;;;;;;;;;;;11.70;93.00;;;;;;5108627;28;19957;-69
2023/04/12 11:29:07;;;;;;;;;;;11.60;93.00;;;;;;5108296;28;19919;-68
2023/04/12 11:31:32;;;;;;;;;;;11.60;93.00;;;;;;5099258;28;19909;-68
2023/04/12 11:33:58;;;;;;;;;;;11.60;93.00;;;;;;5088029;28;20354;-68
2023/04/12 11:36:25;;;;;;;;;;;11.60;92.90;;;;;;5107648;28;19947;-68
2023/04/12 11:38:52;;;;;;;;;;;11.70;92.90;;;;;;5108431;28;20034;-68
2023/04/12 11:41:17;;;;;;;;;;;11.70;92.80;;;;;;5105476;28;19911;-68
2023/04/12 11:43:44;;;;;;;;;;;11.70;92.80;;;;;;5107885;27;19912;-68
2023/04/12 11:46:10;;;;;;;;;;;11.70;92.70;;;;;;5117069;27;19908;-68
2023/04/12 11:48:37;;;;;;;;;;;11.80;92.70;;;;;;5119342;27;19915;-68
2023/04/12 11:51:23;;;;;;;;;;;11.80;92.60;;;;;;5128923;27;20352;-68
2023/04/12 11:53:52;;;;;;;;;;;11.90;92.70;;;;;;5127337;27;19923;-68
2023/04/12 11:56:18;;;;;;;;;;;11.90;92.60;;;;;;5125241;27;19907;-68
2023/04/12 11:58:45;;;;;;;;;;;11.90;92.70;;;;;;5107206;28;20276;-68
2023/04/12 12:01:11;;;;;;;;;;;11.90;92.70;;;;;;5106701;28;19916;-68
2023/04/12 12:03:37;;;;;;;;;;;11.90;92.80;;;;;;5104822;28;19922;-68
2023/04/12 12:06:02;;;;;;;;;;;11.90;92.80;;;;;;5107062;28;19916;-68
2023/04/12 12:08:28;;;;;;;;;;;11.90;92.70;;;;;;5107090;28;19923;-68
2023/04/12 12:10:54;;;;;;;;;;;12.00;92.90;;;;;;5107317;28;19919;-68
2023/04/12 12:13:19;;;;;;;;;;;12.00;92.80;;;;;;5106561;28;19938;-68
2023/04/12 12:15:45;;;;;;;;;;;12.10;93.00;;;;;;5106764;28;20261;-68
2023/04/12 12:18:10;;;;;;;;;;;12.10;92.70;;;;;;5106567;28;19954;-68
2023/04/12 12:20:40;;;;;;;;;;;12.20;92.50;;;;;;5107130;28;19927;-68
2023/04/12 12:23:06;;;;;;;;;;;12.30;92.50;;;;;;5107295;28;19912;-68
2023/04/12 12:25:32;;;;;;;;;;;12.30;92.30;;;;;;5108220;28;19912;-68
2023/04/12 12:27:58;;;;;;;;;;;12.40;92.30;;;;;;5111958;28;20381;-68
2023/04/12 12:30:23;;;;;;;;;;;12.40;92.30;;;;;;5112048;27;20053;-68
2023/04/12 12:32:51;;;;;;;;;;;12.40;92.20;;;;;;5091394;28;19965;-68
2023/04/12 12:35:18;;;;;;;;;;;12.50;92.20;;;;;;5101644;28;19923;-68
2023/04/12 12:37:57;;;;;;;;;;;12.50;92.20;;;;;;5105481;28;20285;-68
2023/04/12 12:40:32;;;;;;;;;;;12.50;92.10;;;;;;5101309;28;20402;-68
2023/04/12 12:42:58;;;;;;;;;;;12.60;92.00;;;;;;5109901;28;19915;-67
2023/04/12 12:45:25;;;;;;;;;;;12.70;92.00;;;;;;5110684;28;19915;-68
2023/04/12 12:47:50;;;;;;;;;;;12.80;91.80;;;;;;5110768;28;19916;-68
2023/04/12 12:50:16;;;;;;;;;;;12.90;91.80;;;;;;5110449;28;19912;-68
2023/04/12 12:52:44;;;;;;;;;;;12.90;91.70;;;;;;5110382;28;20319;-68
2023/04/12 12:55:09;;;;;;;;;;;13.00;91.60;;;;;;5111638;27;19923;-68
2023/04/12 12:57:35;;;;;;;;;;;13.00;91.50;;;;;;5110835;27;19986;-68
2023/04/12 13:00:00;;;;;;;;;;;13.00;91.60;;;;;;5111306;27;19911;-68
2023/04/12 13:02:26;;;;;;;;;;;13.00;91.50;;;;;;5111020;28;19919;-68
2023/04/12 13:04:51;;;;;;;;;;;13.00;91.40;;;;;;5111316;28;19908;-68
2023/04/12 13:07:17;;;;;;;;;;;13.10;91.50;;;;;;5111290;28;20026;-68
2023/04/12 13:09:44;;;;;;;;;;;13.20;91.40;;;;;;5111231;28;19908;-68
2023/04/12 13:12:10;;;;;;;;;;;13.30;91.30;;;;;;5110635;28;19919;-68
2023/04/12 13:14:35;;;;;;;;;;;13.30;91.20;;;;;;5110841;28;19915;-67
2023/04/12 13:17:01;;;;;;;;;;;13.40;91.30;;;;;;5110426;28;19915;-68
2023/04/12 13:19:26;;;;;;;;;;;13.40;91.20;;;;;;5103341;27;19995;-67
2023/04/12 13:21:52;;;;;;;;;;;13.40;91.10;;;;;;5108946;28;20035;-68
2023/04/12 13:24:18;;;;;;;;;;;13.50;91.20;;;;;;5112455;27;20644;-68
2023/04/12 13:26:43;;;;;;;;;;;13.50;91.10;;;;;;5110430;28;20593;-67
2023/04/12 13:29:09;;;;;;;;;;;13.50;91.00;;;;;;5110300;27;19916;-67
2023/04/12 13:31:34;;;;;;;;;;;13.70;91.00;;;;;;5110830;28;19908;-68
2023/04/12 13:34:00;;;;;;;;;;;13.70;90.90;;;;;;5109808;28;19920;-68
2023/04/12 13:36:26;;;;;;;;;;;13.80;90.80;;;;;;5108799;28;19912;-68
2023/04/12 13:38:51;;;;;;;;;;;13.80;90.70;;;;;;5092604;28;19912;-68
2023/04/12 13:41:17;;;;;;;;;;;13.80;90.60;;;;;;5102741;28;19994;-68
2023/04/12 13:43:43;;;;;;;;;;;13.90;90.50;;;;;;5110055;28;19912;-68
2023/04/12 13:46:08;;;;;;;;;;;14.00;90.60;;;;;;5110058;28;19919;-68
2023/04/12 13:48:34;;;;;;;;;;;14.10;90.60;;;;;;5109607;28;20619;-68
2023/04/12 13:50:59;;;;;;;;;;;14.20;90.40;;;;;;5108985;28;19915;-68
2023/04/12 13:53:26;;;;;;;;;;;14.20;90.40;;;;;;5109433;28;20618;-68
2023/04/12 13:55:51;;;;;;;;;;;14.20;90.30;;;;;;5110360;28;20380;-67
2023/04/12 13:58:17;;;;;;;;;;;14.30;90.40;;;;;;5096248;27;19955;-67
2023/04/12 14:00:43;;;;;;;;;;;14.30;90.50;;;;;;5109312;28;19971;-67
2023/04/12 14:03:08;;;;;;;;;;;14.30;90.60;;;;;;5109348;28;20341;-67
2023/04/12 14:05:34;;;;;;;;;;;14.40;90.30;;;;;;5109743;28;19973;-67
2023/04/12 14:07:59;;;;;;;;;;;14.40;90.30;;;;;;5109894;28;19912;-68
2023/04/12 14:10:25;;;;;;;;;;;14.40;90.10;;;;;;5110195;28;19986;-68
2023/04/12 14:12:51;;;;;;;;;;;14.50;90.20;;;;;;5109550;28;19958;-68
2023/04/12 14:15:16;;;;;;;;;;;14.50;90.10;;;;;;5100008;28;19916;-68
2023/04/12 14:17:42;;;;;;;;;;;14.50;89.90;;;;;;5109596;28;20303;-67
2023/04/12 14:20:09;;;;;;;;;;;14.50;90.00;;;;;;5109717;28;20337;-68
2023/04/12 14:22:35;;;;;;;;;;;14.40;90.00;;;;;;5109284;28;19918;-68
2023/04/12 14:25:01;;;;;;;;;;;14.40;89.90;;;;;;5108296;28;19916;-68